(°C)
17°
17°
17°
17°
17°
17°
17°
(°C)
15°
15°
15°
15°
15°
15°
15°
ЮЮЗ
ЮЮЗ
ЮЮЗ
ЮЮЗ
ЮЮЗ
ЮЮЗ
ЮЮЗ
(km/h)
22-37
21-38
20-38
20-38
20-37
20-37
21-36
(mm)
0
0
0
0.8
1.7
2.3
2.4
(%)
57
70
84
99
99
99
99

Издигане на слънцето

/ -26.9°
sun-icon
UV 3
05:09
20:07
Намаляващ полумесец (338°)
04:07
18:33

METAR за Барнстабъл (KHYA)

Час Условия Температура/
Точка на оросяване
Вятър Видимост Времето Облаци Налягане Промяна Сурови
LIFR 17.2°C / 16.7°C 200º 11kt 3200m Mist Vertical Visibility of 0ft. - KHYA 280424Z AUTO 20011KT 2SM BR OVC002 17/17 A2984 RMK AO2 T01720167
LIFR 17.2°C / 16.7°C 200º 11kt 1600m Mist 0.13mm precipitation Vertical Visibility of 200ft. 1010 - KHYA 280356Z AUTO 20011KT 1SM BR VV002 17/17 A2985 RMK AO2 RAE03 SLP108 P0000 T01720167
LIFR 17.2°C / 16.7°C 210º 15kt Gust 20kt 1600m Light Rain Mist 0.13mm precipitation Vertical Visibility of 200ft. 1010 - KHYA 280256Z AUTO 21015G20KT 1SM -RA BR VV002 17/17 A2985 RMK AO2 RAB0159E08B51 SLP109 P0000 60000 T01720167 58014
LIFR 17.2°C / 16.7°C 200º 12kt 2000m Mist 0.13mm precipitation Overcast 200ft - KHYA 280244Z AUTO 20012KT 1 1/4SM BR OVC002 17/17 A2985 RMK AO2 RAB0159E08 P0000 T01720167
LIFR 17.2°C / 16.7°C 190º 10kt 1200m Mist 0.13mm precipitation Vertical Visibility of 200ft. - KHYA 280213Z AUTO 19010KT 3/4SM BR VV002 17/17 A2986 RMK AO2 RAB0159E08 P0000 T01720167
LIFR 17.2°C / 16.7°C 210º 10kt 1600m Mist Vertical Visibility of 0ft. 1011 - KHYA 280156Z 21010KT 1SM BR VV002 17/17 A2987 RMK AO2 SLP116 T01720167
LIFR 17.2°C / 16.7°C 210º 11kt Gust 18kt 1600m Mist Vertical Visibility of 0ft. - KHYA 280130Z 21011G18KT 1SM BR VV002 17/17 A2988 RMK AO2 T01720167
LIFR 17.2°C / 16.7°C 210º 12kt 1200m Mist Vertical Visibility of 0ft. - KHYA 280103Z 21012KT 3/4SM BR VV002 17/17 A2988 RMK AO2 T01720167
LIFR 17.2°C / 16.7°C 210º 11kt 1600m Mist 0.13mm precipitation Vertical Visibility of 200ft. 1011 - KHYA 280056Z 21011KT 1SM BR VV002 17/17 A2988 RMK AO2 RAB28E39 SLP119 P0000 T01720167
LIFR 17.8°C / 16.7°C 210º 11kt 2800m Mist Vertical Visibility of 0ft. - KHYA 280027Z 21011KT 1 3/4SM BR OVC002 18/17 A2988 RMK AO2 T01780167
LIFR 17.2°C / 16.1°C 200º 10kt 4800m Mist 0.51mm precipitation Overcast 400ft 1012 - KHYA 272356Z 20010KT 3SM BR OVC004 17/16 A2989 RMK AO2 RAB27E46 SLP123 P0002 60002 T01720161 10211 20172 56004
LIFR 17.8°C / 16.7°C 200º 11kt Gust 17kt >10km - Broken Clouds 400ft 1012 - KHYA 272256Z 20011G17KT 10SM BKN004 18/17 A2989 RMK AO2 SLP124 T01780167
IFR 17.8°C / 16.7°C 210º 12kt 6400m Mist Vertical Visibility of 0ft. 1012 - KHYA 272156Z 21012KT 4SM BR OVC005 18/17 A2991 RMK AO2 SLP128 T01780167
IFR 18.3°C / 16.7°C 210º 12kt 6400m Haze Vertical Visibility of 0ft. 1012 - KHYA 272056Z 21012KT 4SM HZ OVC005 18/17 A2991 RMK AO2 SLP128 T01830167 56010
IFR 18.3°C / 16.1°C 200º 11kt Gust 18kt >10km - Broken Clouds 700ft
Overcast 2100ft
1013 - KHYA 271956Z 20011G18KT 8SM BKN007 OVC021 18/16 A2991 RMK AO2 SLP130 T01830161
IFR 20.6°C / 17.2°C 200º 10kt 4800m Haze Vertical Visibility of 0ft. - KHYA 271932Z 20010KT 3SM HZ BKN009 21/17 A2991 RMK AO2 T02060172
LIFR 19.4°C / 17.2°C 200º variable 003º to 007º 8kt 4800m Mist Vertical Visibility of 0ft.
Overcast 1700ft
1013 - KHYA 271856Z 20008KT 3SM BR BKN003 OVC017 19/17 A2992 RMK AO2 CIG 003V007 SLP132 T01940172
LIFR 18.9°C / 17.2°C 200º 12kt Gust 21kt 3200m Mist 0.13mm precipitation Overcast 300ft 1013 - KHYA 271756Z 20012G21KT 2SM BR OVC003 19/17 A2994 RMK AO2 RAE11 SLP138 P0000 60000 T01890172 10194 20172 58014
LIFR 17.8°C / 16.7°C 210º 12kt 1600m Light Rain Mist 0.13mm precipitation Overcast 300ft 1014 - KHYA 271656Z 21012KT 1SM -RA BR OVC003 18/17 A2996 RMK AO2 RAB47 SLP145 P0000 T01780167
LIFR 18.3°C / 16.7°C 210º 13kt Gust 22kt 1600m Mist Vertical Visibility of 0ft. - KHYA 271626Z 21013G22KT 1SM BR OVC004 18/17 A2996 RMK AO2 T01830167
LIFR 18.3°C / 16.7°C 210º 14kt Gust 22kt 8000m Mist Vertical Visibility of 0ft. 1014 - KHYA 271556Z 21014G22KT 5SM BR OVC004 18/17 A2997 RMK AO2 SLP148 T01830167
LIFR 18.3°C / 16.7°C 210º 16kt Gust 26kt 4800m Mist Vertical Visibility of 0ft. 1015 - KHYA 271456Z 21016G26KT 3SM BR OVC004 18/17 A2998 RMK AO2 PK WND 21026/1452 SLP152 60000 T01830167 56015
LIFR 18.3°C / 16.7°C 200º 16kt Gust 24kt 4800m Mist Vertical Visibility of 0ft. 1015 - KHYA 271356Z 20016G24KT 3SM BR OVC004 18/17 A2998 RMK AO2 SLP153 T01830167
IFR 17.8°C / 16.1°C 210º 16kt Gust 23kt 6400m Mist 0.13mm precipitation Broken Clouds 500ft
Overcast 1200ft
1016 - KHYA 271256Z 21016G23KT 4SM BR BKN005 OVC012 18/16 A3000 RMK AO2 RAB03E13 SLP160 P0000 T01780161

LIFR

17.2°C / 16.7°C

[Още]
Вятър 200º 11kt
Видимост 3200m
Времето Mist
Облаци Vertical Visibility of 0ft.
Налягане
Промяна -
Сурови KHYA 280424Z AUTO 20011KT 2SM BR OVC002 17/17 A2984 RMK AO2 T01720167

LIFR

17.2°C / 16.7°C

[Още]
Вятър 200º 11kt
Видимост 1600m
Времето Mist 0.13mm precipitation
Облаци Vertical Visibility of 200ft.
Налягане 1010
Промяна -
Сурови KHYA 280356Z AUTO 20011KT 1SM BR VV002 17/17 A2985 RMK AO2 RAE03 SLP108 P0000 T01720167

LIFR

17.2°C / 16.7°C

[Още]
Вятър 210º 15kt Gust 20kt
Видимост 1600m
Времето Light Rain Mist 0.13mm precipitation
Облаци Vertical Visibility of 200ft.
Налягане 1010
Промяна -
Сурови KHYA 280256Z AUTO 21015G20KT 1SM -RA BR VV002 17/17 A2985 RMK AO2 RAB0159E08B51 SLP109 P0000 60000 T01720167 58014

LIFR

17.2°C / 16.7°C

[Още]
Вятър 200º 12kt
Видимост 2000m
Времето Mist 0.13mm precipitation
Облаци Overcast 200ft
Налягане
Промяна -
Сурови KHYA 280244Z AUTO 20012KT 1 1/4SM BR OVC002 17/17 A2985 RMK AO2 RAB0159E08 P0000 T01720167

LIFR

17.2°C / 16.7°C

[Още]
Вятър 190º 10kt
Видимост 1200m
Времето Mist 0.13mm precipitation
Облаци Vertical Visibility of 200ft.
Налягане
Промяна -
Сурови KHYA 280213Z AUTO 19010KT 3/4SM BR VV002 17/17 A2986 RMK AO2 RAB0159E08 P0000 T01720167

LIFR

17.2°C / 16.7°C

[Още]
Вятър 210º 10kt
Видимост 1600m
Времето Mist
Облаци Vertical Visibility of 0ft.
Налягане 1011
Промяна -
Сурови KHYA 280156Z 21010KT 1SM BR VV002 17/17 A2987 RMK AO2 SLP116 T01720167

LIFR

17.2°C / 16.7°C

[Още]
Вятър 210º 11kt Gust 18kt
Видимост 1600m
Времето Mist
Облаци Vertical Visibility of 0ft.
Налягане
Промяна -
Сурови KHYA 280130Z 21011G18KT 1SM BR VV002 17/17 A2988 RMK AO2 T01720167

LIFR

17.2°C / 16.7°C

[Още]
Вятър 210º 12kt
Видимост 1200m
Времето Mist
Облаци Vertical Visibility of 0ft.
Налягане
Промяна -
Сурови KHYA 280103Z 21012KT 3/4SM BR VV002 17/17 A2988 RMK AO2 T01720167

LIFR

17.2°C / 16.7°C

[Още]
Вятър 210º 11kt
Видимост 1600m
Времето Mist 0.13mm precipitation
Облаци Vertical Visibility of 200ft.
Налягане 1011
Промяна -
Сурови KHYA 280056Z 21011KT 1SM BR VV002 17/17 A2988 RMK AO2 RAB28E39 SLP119 P0000 T01720167

LIFR

17.8°C / 16.7°C

[Още]
Вятър 210º 11kt
Видимост 2800m
Времето Mist
Облаци Vertical Visibility of 0ft.
Налягане
Промяна -
Сурови KHYA 280027Z 21011KT 1 3/4SM BR OVC002 18/17 A2988 RMK AO2 T01780167

LIFR

17.2°C / 16.1°C

[Още]
Вятър 200º 10kt
Видимост 4800m
Времето Mist 0.51mm precipitation
Облаци Overcast 400ft
Налягане 1012
Промяна -
Сурови KHYA 272356Z 20010KT 3SM BR OVC004 17/16 A2989 RMK AO2 RAB27E46 SLP123 P0002 60002 T01720161 10211 20172 56004

LIFR

17.8°C / 16.7°C

[Още]
Вятър 200º 11kt Gust 17kt
Видимост >10km
Времето -
Облаци Broken Clouds 400ft
Налягане 1012
Промяна -
Сурови KHYA 272256Z 20011G17KT 10SM BKN004 18/17 A2989 RMK AO2 SLP124 T01780167

IFR

17.8°C / 16.7°C

[Още]
Вятър 210º 12kt
Видимост 6400m
Времето Mist
Облаци Vertical Visibility of 0ft.
Налягане 1012
Промяна -
Сурови KHYA 272156Z 21012KT 4SM BR OVC005 18/17 A2991 RMK AO2 SLP128 T01780167

IFR

18.3°C / 16.7°C

[Още]
Вятър 210º 12kt
Видимост 6400m
Времето Haze
Облаци Vertical Visibility of 0ft.
Налягане 1012
Промяна -
Сурови KHYA 272056Z 21012KT 4SM HZ OVC005 18/17 A2991 RMK AO2 SLP128 T01830167 56010

IFR

18.3°C / 16.1°C

[Още]
Вятър 200º 11kt Gust 18kt
Видимост >10km
Времето -
Облаци Broken Clouds 700ft
Overcast 2100ft
Налягане 1013
Промяна -
Сурови KHYA 271956Z 20011G18KT 8SM BKN007 OVC021 18/16 A2991 RMK AO2 SLP130 T01830161

IFR

20.6°C / 17.2°C

[Още]
Вятър 200º 10kt
Видимост 4800m
Времето Haze
Облаци Vertical Visibility of 0ft.
Налягане
Промяна -
Сурови KHYA 271932Z 20010KT 3SM HZ BKN009 21/17 A2991 RMK AO2 T02060172

LIFR

19.4°C / 17.2°C

[Още]
Вятър 200º variable 003º to 007º 8kt
Видимост 4800m
Времето Mist
Облаци Vertical Visibility of 0ft.
Overcast 1700ft
Налягане 1013
Промяна -
Сурови KHYA 271856Z 20008KT 3SM BR BKN003 OVC017 19/17 A2992 RMK AO2 CIG 003V007 SLP132 T01940172

LIFR

18.9°C / 17.2°C

[Още]
Вятър 200º 12kt Gust 21kt
Видимост 3200m
Времето Mist 0.13mm precipitation
Облаци Overcast 300ft
Налягане 1013
Промяна -
Сурови KHYA 271756Z 20012G21KT 2SM BR OVC003 19/17 A2994 RMK AO2 RAE11 SLP138 P0000 60000 T01890172 10194 20172 58014

LIFR

17.8°C / 16.7°C

[Още]
Вятър 210º 12kt
Видимост 1600m
Времето Light Rain Mist 0.13mm precipitation
Облаци Overcast 300ft
Налягане 1014
Промяна -
Сурови KHYA 271656Z 21012KT 1SM -RA BR OVC003 18/17 A2996 RMK AO2 RAB47 SLP145 P0000 T01780167

LIFR

18.3°C / 16.7°C

[Още]
Вятър 210º 13kt Gust 22kt
Видимост 1600m
Времето Mist
Облаци Vertical Visibility of 0ft.
Налягане
Промяна -
Сурови KHYA 271626Z 21013G22KT 1SM BR OVC004 18/17 A2996 RMK AO2 T01830167

LIFR

18.3°C / 16.7°C

[Още]
Вятър 210º 14kt Gust 22kt
Видимост 8000m
Времето Mist
Облаци Vertical Visibility of 0ft.
Налягане 1014
Промяна -
Сурови KHYA 271556Z 21014G22KT 5SM BR OVC004 18/17 A2997 RMK AO2 SLP148 T01830167

LIFR

18.3°C / 16.7°C

[Още]
Вятър 210º 16kt Gust 26kt
Видимост 4800m
Времето Mist
Облаци Vertical Visibility of 0ft.
Налягане 1015
Промяна -
Сурови KHYA 271456Z 21016G26KT 3SM BR OVC004 18/17 A2998 RMK AO2 PK WND 21026/1452 SLP152 60000 T01830167 56015

LIFR

18.3°C / 16.7°C

[Още]
Вятър 200º 16kt Gust 24kt
Видимост 4800m
Времето Mist
Облаци Vertical Visibility of 0ft.
Налягане 1015
Промяна -
Сурови KHYA 271356Z 20016G24KT 3SM BR OVC004 18/17 A2998 RMK AO2 SLP153 T01830167

IFR

17.8°C / 16.1°C

[Още]
Вятър 210º 16kt Gust 23kt
Видимост 6400m
Времето Mist 0.13mm precipitation
Облаци Broken Clouds 500ft
Overcast 1200ft
Налягане 1016
Промяна -
Сурови KHYA 271256Z 21016G23KT 4SM BR BKN005 OVC012 18/16 A3000 RMK AO2 RAB03E13 SLP160 P0000 T01780161

TAF за Барнстабъл (KHYA)

From till


From till Wind 210º 10kt. Visibility 1600m. Mist in the Vicinity Showers . Obscured Sky.
From till Wind 200º 15kt. Gust 25kt. Wind Shear at 2000ft with winds 220º 45kt. Visibility 804.670m. Fog in the Vicinity Showers . Overcast 300ft.
From till Wind 200º 14kt. Gust 25kt. Wind Shear at 2000ft with winds 230º 45kt. Visibility 804.670m. Light Showers Rain Fog . Overcast 300ft.
From till Wind 210º 14kt. Gust 24kt. Visibility 8000m. Mist . Broken Clouds 300ft.

Сурови: KHYA 280205Z 2802/2824 21010KT 1SM BR VCSH VV002 FM280300 20015G25KT 1/2SM FG VCSH OVC003 WS020/22045KT FM280500 20014G25KT 1/2SM -SHRA FG OVC003 WS020/23045KT FM281400 21014G24KT 5SM BR BKN003

Радар и валежи в момента за Барнстабъл

Ситен дъжд
Лек
Умерен
Тежък
Много тежък
Аве

Маркерът за локация обозначава Барнстабъл. Анимацията показва Радара за валежи за последния час, както и прогноза за 1h. Дъждът или лекият сняг може да са невидими за радара. Интензивността на валежите е обозначена с цветни кодове, вариращи от светлосиньо до оранжево.

Актуални сателитни изображения за Барнстабъл, САЩ

Маркерът за локация е поставен върху Барнстабъл. [Още]

Сателитното изображение в реално време съчетава видимата светлина през деня с инфрачервеното лъчение през нощта. През нощта изображението не е тъмно, тъй като инфрачервеното лъчение може да открива температурни разлики. За съжаление ниските облаци и мъглата са трудни за разграничаване от температурите на земята и затова могат да бъдат почти невидими през нощта. Сателитните изображения на Meteosat за Европа се актуализират в реално време на всеки 5 минути. Изображенията GOES-16/GOES-17 (Северна и Южна Америка) и Химавари (Азия) се актуализират на всеки 10 минути.

Върнете се в началото